Time;durP1;ratioP1;P1;durP2;ratioP2;P2;SDS_P1;SDS_P2;PMS_P1;PMS_P2;Temp;Humidity;BMP_temperature;BMP_pressure;BME280_temperature;BME280_humidity;BME280_pressure;Samples;Min_cycle;Max_cycle;Signal;HPM_P1;HPM_P2
2021/01/04 00:01:57;;;;;;;;;;;5.00;94.30;;;;;;5075378;28;20050;-90
2021/01/04 00:04:41;;;;;;;;;;;5.00;94.40;;;;;;5071316;28;19977;-91
2021/01/04 00:07:19;;;;;;;;;;;5.00;94.30;;;;;;5063554;28;19916;-89
2021/01/04 00:10:03;;;;;;;;;;;5.00;94.40;;;;;;5096553;28;19900;-90
2021/01/04 00:12:37;;;;;;;;;;;5.00;94.40;;;;;;5079602;28;19904;-87
2021/01/04 00:15:03;;;;;;;;;;;5.00;94.30;;;;;;5108255;28;19960;-88
2021/01/04 00:17:46;;;;;;;;;;;5.00;94.30;;;;;;5102396;28;19912;-90
2021/01/04 00:20:15;;;;;;;;;;;5.00;94.40;;;;;;5088171;28;19904;-88
2021/01/04 00:22:56;;;;;;;;;;;5.00;94.40;;;;;;5111499;28;19908;-86
2021/01/04 00:25:25;;;;;;;;;;;5.00;94.40;;;;;;5086438;28;19908;-90
2021/01/04 00:27:54;;;;;;;;;;;5.00;94.40;;;;;;5094173;28;19912;-90
2021/01/04 00:30:27;;;;;;;;;;;5.00;94.40;;;;;;5056745;28;19904;-91
2021/01/04 00:32:54;;;;;;;;;;;5.00;94.40;;;;;;5090333;28;19904;-89
2021/01/04 00:35:21;;;;;;;;;;;5.00;94.40;;;;;;5069577;28;19908;-91
2021/01/04 00:38:05;;;;;;;;;;;5.00;94.40;;;;;;5088887;28;19961;-92
2021/01/04 00:40:37;;;;;;;;;;;5.00;94.40;;;;;;5064355;28;19922;-91
2021/01/04 00:43:03;;;;;;;;;;;5.00;94.40;;;;;;5093810;28;19908;-90
2021/01/04 00:45:55;;;;;;;;;;;5.00;94.40;;;;;;5081847;28;19908;-89
2021/01/04 00:48:47;;;;;;;;;;;5.00;94.40;;;;;;5059162;28;19904;-91
2021/01/04 00:51:18;;;;;;;;;;;5.00;94.40;;;;;;5043275;28;19909;-91
2021/01/04 00:53:47;;;;;;;;;;;5.00;94.40;;;;;;5074165;28;19916;-91
2021/01/04 00:56:15;;;;;;;;;;;5.00;94.50;;;;;;5074241;28;19908;-90
2021/01/04 00:58:44;;;;;;;;;;;5.00;94.50;;;;;;5074150;28;19995;-88
2021/01/04 01:01:12;;;;;;;;;;;5.00;94.50;;;;;;5090112;28;20294;-90
2021/01/04 01:03:47;;;;;;;;;;;5.00;94.50;;;;;;5059048;28;20019;-90
2021/01/04 01:06:12;;;;;;;;;;;5.00;94.50;;;;;;5065645;28;19915;-91
2021/01/04 01:08:39;;;;;;;;;;;5.00;94.50;;;;;;5080982;28;20361;-91
2021/01/04 01:11:08;;;;;;;;;;;5.00;94.40;;;;;;5075408;28;20002;-90
2021/01/04 01:13:52;;;;;;;;;;;5.00;94.50;;;;;;5076004;28;19904;-90
2021/01/04 01:16:41;;;;;;;;;;;5.00;94.50;;;;;;5091044;28;19915;-90
2021/01/04 01:19:12;;;;;;;;;;;5.00;94.50;;;;;;5047141;28;19916;-92
2021/01/04 01:21:38;;;;;;;;;;;5.00;94.50;;;;;;5074893;28;19908;-90
2021/01/04 01:24:04;;;;;;;;;;;5.00;94.50;;;;;;5083768;28;19941;-91
2021/01/04 01:26:32;;;;;;;;;;;5.00;94.50;;;;;;5073116;28;19912;-90
2021/01/04 01:29:07;;;;;;;;;;;5.00;94.50;;;;;;5064540;28;19904;-90
2021/01/04 01:31:45;;;;;;;;;;;5.00;94.50;;;;;;5091701;28;19904;-90
2021/01/04 01:34:10;;;;;;;;;;;5.00;94.50;;;;;;5056189;28;19909;-90
2021/01/04 01:36:48;;;;;;;;;;;5.00;94.50;;;;;;5069279;28;19915;-90
2021/01/04 01:39:14;;;;;;;;;;;5.00;94.50;;;;;;5078606;28;19962;-91
2021/01/04 01:42:02;;;;;;;;;;;5.00;94.60;;;;;;5088655;28;19908;-89
2021/01/04 01:44:34;;;;;;;;;;;5.00;94.70;;;;;;5092706;28;19908;-90
2021/01/04 01:47:06;;;;;;;;;;;5.00;94.60;;;;;;5093326;28;19908;-90
2021/01/04 01:49:31;;;;;;;;;;;5.00;94.60;;;;;;5093124;28;19904;-89
2021/01/04 01:52:16;;;;;;;;;;;5.00;94.70;;;;;;5089230;28;19935;-89
2021/01/04 01:54:58;;;;;;;;;;;5.00;94.60;;;;;;5087382;28;20001;-88
2021/01/04 01:57:31;;;;;;;;;;;4.90;94.60;;;;;;5079344;28;19905;-89
2021/01/04 02:00:29;;;;;;;;;;;4.90;94.70;;;;;;5079019;28;19908;-90
2021/01/04 02:02:59;;;;;;;;;;;4.90;94.80;;;;;;5031021;28;20364;-90
2021/01/04 02:05:43;;;;;;;;;;;4.90;94.80;;;;;;5092831;28;19904;-90
2021/01/04 02:08:11;;;;;;;;;;;4.90;94.90;;;;;;5100157;28;19910;-89
2021/01/04 02:10:39;;;;;;;;;;;4.90;94.90;;;;;;5113341;28;19904;-90
2021/01/04 02:13:11;;;;;;;;;;;4.90;94.90;;;;;;5093350;28;19942;-90
2021/01/04 02:15:46;;;;;;;;;;;4.90;94.90;;;;;;5074897;28;19994;-90
2021/01/04 02:18:24;;;;;;;;;;;4.90;95.00;;;;;;5092809;28;19912;-89
2021/01/04 02:20:52;;;;;;;;;;;4.90;95.00;;;;;;5093046;28;19942;-89
2021/01/04 02:23:18;;;;;;;;;;;4.90;95.10;;;;;;5112718;28;19998;-89
2021/01/04 02:25:45;;;;;;;;;;;4.90;95.10;;;;;;5095123;28;19961;-89
2021/01/04 02:28:13;;;;;;;;;;;4.90;95.30;;;;;;5113423;28;19911;-90
2021/01/04 02:30:38;;;;;;;;;;;4.90;95.30;;;;;;5103063;28;19963;-90
2021/01/04 02:33:06;;;;;;;;;;;4.90;95.40;;;;;;5092740;28;19939;-90
2021/01/04 02:35:33;;;;;;;;;;;4.80;95.40;;;;;;5093596;28;19931;-90
2021/01/04 02:37:58;;;;;;;;;;;4.90;95.50;;;;;;5089110;28;19915;-90
2021/01/04 02:40:24;;;;;;;;;;;4.90;95.60;;;;;;5056504;28;19945;-90
2021/01/04 02:42:49;;;;;;;;;;;4.90;95.50;;;;;;5068389;28;19938;-90
2021/01/04 02:45:25;;;;;;;;;;;4.80;95.50;;;;;;5061877;28;19915;-91
2021/01/04 02:48:06;;;;;;;;;;;4.80;95.60;;;;;;5083509;28;20372;-91
2021/01/04 02:50:36;;;;;;;;;;;4.80;95.60;;;;;;5089271;28;19983;-87
2021/01/04 02:53:07;;;;;;;;;;;4.80;95.60;;;;;;5065033;28;19910;-90
2021/01/04 02:55:33;;;;;;;;;;;4.80;95.60;;;;;;5054756;28;19994;-91
2021/01/04 02:58:06;;;;;;;;;;;4.70;95.70;;;;;;5072542;28;20011;-90
2021/01/04 03:00:32;;;;;;;;;;;4.80;95.80;;;;;;5060262;28;19909;-90
2021/01/04 03:02:59;;;;;;;;;;;4.70;95.80;;;;;;5054630;28;19919;-90
2021/01/04 03:05:25;;;;;;;;;;;4.80;95.90;;;;;;5075076;28;19991;-89
2021/01/04 03:07:53;;;;;;;;;;;4.70;95.90;;;;;;5090680;28;19905;-90
2021/01/04 03:10:25;;;;;;;;;;;4.80;96.00;;;;;;5087479;28;19904;-90
2021/01/04 03:13:16;;;;;;;;;;;4.70;95.90;;;;;;5064053;28;19926;-90
2021/01/04 03:15:42;;;;;;;;;;;4.70;95.80;;;;;;5073926;28;19904;-90
2021/01/04 03:18:10;;;;;;;;;;;4.70;95.90;;;;;;5063979;28;20321;-90
2021/01/04 03:20:36;;;;;;;;;;;4.70;96.00;;;;;;5084567;28;20383;-90
2021/01/04 03:23:02;;;;;;;;;;;4.70;96.00;;;;;;5075514;28;19908;-90
2021/01/04 03:25:28;;;;;;;;;;;4.70;96.00;;;;;;5087218;28;20419;-90
2021/01/04 03:27:53;;;;;;;;;;;4.70;96.00;;;;;;5090893;28;19908;-90
2021/01/04 03:30:19;;;;;;;;;;;4.70;96.10;;;;;;5089535;28;20018;-90
2021/01/04 03:32:45;;;;;;;;;;;4.70;96.00;;;;;;5088377;28;20275;-90
2021/01/04 03:35:10;;;;;;;;;;;4.70;96.00;;;;;;5063624;28;19995;-90
2021/01/04 03:37:36;;;;;;;;;;;4.60;96.00;;;;;;5066686;28;19916;-90
2021/01/04 03:40:02;;;;;;;;;;;4.60;96.10;;;;;;5054332;28;19923;-90
2021/01/04 03:42:28;;;;;;;;;;;4.60;96.10;;;;;;5046586;28;19914;-90
2021/01/04 03:44:53;;;;;;;;;;;4.60;96.10;;;;;;5090460;28;19904;-89
2021/01/04 03:47:19;;;;;;;;;;;4.60;96.20;;;;;;5061275;28;19930;-90
2021/01/04 03:49:44;;;;;;;;;;;4.60;96.20;;;;;;5095616;28;19915;-89
2021/01/04 03:52:10;;;;;;;;;;;4.60;96.20;;;;;;5063525;28;19999;-90
2021/01/04 03:54:35;;;;;;;;;;;4.60;96.30;;;;;;5090633;28;19904;-89
2021/01/04 03:57:01;;;;;;;;;;;4.60;96.30;;;;;;5091585;28;19912;-90
2021/01/04 03:59:26;;;;;;;;;;;4.60;96.30;;;;;;5070913;28;19939;-88
2021/01/04 04:01:53;;;;;;;;;;;4.60;96.30;;;;;;5119753;28;19896;-88
2021/01/04 04:04:18;;;;;;;;;;;4.60;96.30;;;;;;5117224;28;19908;-89
2021/01/04 04:06:44;;;;;;;;;;;4.60;96.20;;;;;;5115367;28;19966;-89
2021/01/04 04:09:11;;;;;;;;;;;4.50;96.30;;;;;;5100700;28;19922;-88
2021/01/04 04:11:36;;;;;;;;;;;4.50;96.30;;;;;;5117370;28;19953;-89
2021/01/04 04:14:02;;;;;;;;;;;4.60;96.30;;;;;;5064885;28;19915;-89
2021/01/04 04:16:28;;;;;;;;;;;4.50;96.30;;;;;;5068352;28;19909;-89
2021/01/04 04:18:53;;;;;;;;;;;4.50;96.30;;;;;;5070632;28;19916;-90
2021/01/04 04:21:19;;;;;;;;;;;4.50;96.30;;;;;;5057366;28;20390;-90
2021/01/04 04:23:44;;;;;;;;;;;4.50;96.30;;;;;;5051730;28;20356;-89
2021/01/04 04:26:21;;;;;;;;;;;4.50;96.40;;;;;;5081133;28;19969;-90
2021/01/04 04:28:46;;;;;;;;;;;4.50;96.40;;;;;;5065598;28;19908;-90
2021/01/04 04:31:12;;;;;;;;;;;4.50;96.40;;;;;;5092010;28;19915;-91
2021/01/04 04:33:38;;;;;;;;;;;4.50;96.40;;;;;;5085630;28;19904;-88
2021/01/04 04:36:04;;;;;;;;;;;4.50;96.40;;;;;;5070567;28;19959;-90
2021/01/04 04:38:29;;;;;;;;;;;4.50;96.40;;;;;;5063368;28;20446;-90
2021/01/04 04:40:55;;;;;;;;;;;4.50;96.50;;;;;;5076548;28;19959;-88
2021/01/04 04:43:26;;;;;;;;;;;4.50;96.40;;;;;;5060001;28;19947;-91
2021/01/04 04:45:53;;;;;;;;;;;4.50;96.40;;;;;;5094568;28;19911;-90
2021/01/04 04:48:40;;;;;;;;;;;4.50;96.70;;;;;;5094395;28;19911;-90
2021/01/04 04:51:11;;;;;;;;;;;4.50;96.50;;;;;;5094465;28;19947;-90
2021/01/04 04:53:56;;;;;;;;;;;4.50;96.60;;;;;;5094089;28;20006;-90
2021/01/04 04:56:36;;;;;;;;;;;4.50;96.50;;;;;;5062402;28;20276;-91
2021/01/04 04:59:25;;;;;;;;;;;4.50;96.60;;;;;;5073906;28;20372;-89
2021/01/04 05:01:59;;;;;;;;;;;4.50;96.60;;;;;;5086974;28;19915;-91
2021/01/04 05:04:45;;;;;;;;;;;4.60;96.60;;;;;;5069954;28;19908;-91
2021/01/04 05:07:11;;;;;;;;;;;4.60;96.60;;;;;;5057120;28;19914;-90
2021/01/04 05:09:53;;;;;;;;;;;4.60;96.70;;;;;;5093863;28;20346;-90
2021/01/04 05:12:23;;;;;;;;;;;4.60;96.70;;;;;;5092622;28;19911;-90
2021/01/04 05:15:04;;;;;;;;;;;4.60;96.60;;;;;;5081999;28;19911;-90
2021/01/04 05:17:48;;;;;;;;;;;4.60;96.90;;;;;;5068591;28;19958;-91
2021/01/04 05:20:32;;;;;;;;;;;4.60;96.70;;;;;;5086683;28;19908;-90
2021/01/04 05:22:58;;;;;;;;;;;4.60;96.70;;;;;;5077264;28;19934;-90
2021/01/04 05:25:29;;;;;;;;;;;4.60;96.70;;;;;;5068669;28;19905;-89
2021/01/04 05:28:18;;;;;;;;;;;4.60;96.70;;;;;;5075393;28;19908;-90
2021/01/04 05:30:53;;;;;;;;;;;4.60;96.80;;;;;;5074250;28;19998;-90
2021/01/04 05:33:37;;;;;;;;;;;4.60;96.80;;;;;;5094068;28;19910;-90
2021/01/04 05:36:29;;;;;;;;;;;4.60;96.70;;;;;;5073452;28;19904;-91
2021/01/04 05:39:03;;;;;;;;;;;4.60;96.60;;;;;;5083127;28;20384;-90
2021/01/04 05:41:47;;;;;;;;;;;4.60;96.70;;;;;;5055600;28;19904;-90
2021/01/04 05:44:22;;;;;;;;;;;4.60;96.70;;;;;;5072876;28;19908;-90
2021/01/04 05:46:50;;;;;;;;;;;4.60;96.70;;;;;;5064592;28;20387;-91
2021/01/04 05:49:35;;;;;;;;;;;4.60;96.60;;;;;;5069305;28;19908;-90
2021/01/04 05:52:00;;;;;;;;;;;4.60;96.70;;;;;;5073195;28;19915;-90
2021/01/04 05:54:34;;;;;;;;;;;4.70;96.70;;;;;;5087346;28;19909;-90
2021/01/04 05:57:03;;;;;;;;;;;4.60;96.60;;;;;;5065452;28;19908;-91
2021/01/04 05:59:29;;;;;;;;;;;4.60;96.60;;;;;;5092992;28;19916;-89
2021/01/04 06:01:59;;;;;;;;;;;4.60;96.70;;;;;;5093042;28;19916;-90
2021/01/04 06:04:25;;;;;;;;;;;4.60;96.70;;;;;;5077693;28;20379;-90
2021/01/04 06:06:57;;;;;;;;;;;4.60;96.70;;;;;;5055053;28;19915;-90
2021/01/04 06:09:23;;;;;;;;;;;4.60;96.60;;;;;;5069704;28;19908;-89
2021/01/04 06:11:49;;;;;;;;;;;4.50;96.70;;;;;;5074950;28;19926;-89
2021/01/04 06:14:14;;;;;;;;;;;4.60;96.70;;;;;;5092909;28;19916;-90
2021/01/04 06:16:42;;;;;;;;;;;4.60;96.70;;;;;;5057389;28;19916;-87
2021/01/04 06:19:09;;;;;;;;;;;4.60;96.80;;;;;;5085140;28;20382;-88
2021/01/04 06:21:35;;;;;;;;;;;4.60;96.80;;;;;;5100092;28;19958;-90
2021/01/04 06:24:02;;;;;;;;;;;4.60;96.80;;;;;;5081970;28;19916;-90
2021/01/04 06:26:28;;;;;;;;;;;4.60;96.80;;;;;;5061040;28;19931;-89
2021/01/04 06:28:55;;;;;;;;;;;4.60;96.80;;;;;;5073762;28;20363;-90
2021/01/04 06:31:30;;;;;;;;;;;4.50;96.80;;;;;;5093169;28;19904;-89
2021/01/04 06:34:00;;;;;;;;;;;4.60;96.80;;;;;;5077333;28;20363;-89
2021/01/04 06:36:26;;;;;;;;;;;4.50;96.80;;;;;;5098210;28;20363;-90
2021/01/04 06:38:52;;;;;;;;;;;4.60;96.80;;;;;;5082966;28;19944;-90
2021/01/04 06:41:38;;;;;;;;;;;4.60;96.90;;;;;;5085391;28;19962;-88
2021/01/04 06:44:15;;;;;;;;;;;4.60;97.00;;;;;;5086835;28;19914;-89
2021/01/04 06:46:41;;;;;;;;;;;4.60;96.90;;;;;;5084400;28;19907;-90
2021/01/04 06:49:25;;;;;;;;;;;4.60;97.00;;;;;;5116862;28;20355;-89
2021/01/04 06:51:57;;;;;;;;;;;4.60;96.90;;;;;;5081915;28;19904;-88
2021/01/04 06:54:22;;;;;;;;;;;4.60;96.90;;;;;;5088302;28;20355;-90
2021/01/04 06:56:51;;;;;;;;;;;4.60;96.90;;;;;;5097942;28;19979;-90
2021/01/04 06:59:22;;;;;;;;;;;4.60;97.00;;;;;;5078402;28;19923;-90
2021/01/04 07:01:59;;;;;;;;;;;4.60;96.90;;;;;;5096446;28;20360;-89
2021/01/04 07:04:25;;;;;;;;;;;4.60;96.90;;;;;;5091392;28;19915;-89
2021/01/04 07:07:03;;;;;;;;;;;4.60;97.00;;;;;;5117000;28;19904;-89
2021/01/04 07:09:39;;;;;;;;;;;4.60;97.00;;;;;;5058858;28;19904;-89
2021/01/04 07:12:11;;;;;;;;;;;4.60;97.00;;;;;;5091271;28;20171;-89
2021/01/04 07:14:41;;;;;;;;;;;4.60;97.00;;;;;;5116824;28;19903;-87
2021/01/04 07:17:25;;;;;;;;;;;4.50;97.00;;;;;;5117033;28;20430;-89
2021/01/04 07:19:57;;;;;;;;;;;4.60;97.00;;;;;;5093134;28;19916;-89
2021/01/04 07:22:31;;;;;;;;;;;4.60;97.10;;;;;;5115268;28;19911;-89
2021/01/04 07:25:08;;;;;;;;;;;4.60;97.00;;;;;;5096022;28;19912;-89
2021/01/04 07:27:53;;;;;;;;;;;4.60;97.00;;;;;;5079138;28;19911;-89
2021/01/04 07:30:36;;;;;;;;;;;4.60;97.00;;;;;;5079435;28;20360;-89
2021/01/04 07:33:03;;;;;;;;;;;4.60;96.90;;;;;;5096503;28;19904;-90
2021/01/04 07:35:49;;;;;;;;;;;4.60;97.00;;;;;;5097614;28;19911;-90
2021/01/04 07:38:34;;;;;;;;;;;4.60;97.00;;;;;;5080162;28;19919;-90
2021/01/04 07:41:20;;;;;;;;;;;4.60;97.10;;;;;;5087145;28;20002;-89
2021/01/04 07:44:06;;;;;;;;;;;4.60;97.00;;;;;;5092422;28;19908;-89
2021/01/04 07:46:34;;;;;;;;;;;4.60;97.00;;;;;;5104026;28;19899;-89
2021/01/04 07:49:12;;;;;;;;;;;4.60;97.10;;;;;;5121303;28;19930;-88
2021/01/04 07:52:02;;;;;;;;;;;4.60;97.30;;;;;;5103899;28;19892;-89
2021/01/04 07:54:28;;;;;;;;;;;4.60;97.00;;;;;;5103811;28;19930;-89
2021/01/04 07:57:20;;;;;;;;;;;4.60;97.10;;;;;;5120508;28;19923;-87
2021/01/04 08:00:04;;;;;;;;;;;4.60;97.10;;;;;;5063039;28;19920;-93
2021/01/04 08:02:35;;;;;;;;;;;4.60;97.10;;;;;;5082414;28;19911;-89
2021/01/04 08:05:27;;;;;;;;;;;4.60;97.00;;;;;;5093408;28;19912;-89
2021/01/04 08:08:08;;;;;;;;;;;4.60;97.00;;;;;;5064303;28;19904;-87
2021/01/04 08:10:42;;;;;;;;;;;4.60;97.00;;;;;;5059621;28;20370;-89
2021/01/04 08:13:26;;;;;;;;;;;4.60;97.10;;;;;;5091507;28;19904;-89
2021/01/04 08:15:57;;;;;;;;;;;4.60;97.00;;;;;;5064931;28;19909;-89
2021/01/04 08:18:23;;;;;;;;;;;4.60;97.10;;;;;;5057304;28;20419;-89
2021/01/04 08:20:55;;;;;;;;;;;4.60;97.00;;;;;;5060478;28;19908;-89
2021/01/04 08:23:35;;;;;;;;;;;4.60;97.10;;;;;;5066464;28;19954;-88
2021/01/04 08:26:09;;;;;;;;;;;4.60;97.10;;;;;;5078791;28;19904;-88
2021/01/04 08:28:53;;;;;;;;;;;4.60;97.10;;;;;;5083446;28;19969;-89
2021/01/04 08:31:22;;;;;;;;;;;4.60;97.10;;;;;;5095586;28;19911;-89
2021/01/04 08:33:52;;;;;;;;;;;4.60;97.10;;;;;;5082591;28;19908;-88
2021/01/04 08:36:26;;;;;;;;;;;4.60;97.00;;;;;;5089869;28;19908;-89
2021/01/04 08:39:03;;;;;;;;;;;4.60;97.00;;;;;;5056666;28;19916;-88
2021/01/04 08:41:31;;;;;;;;;;;4.60;96.90;;;;;;5089120;28;19904;-89
2021/01/04 08:43:56;;;;;;;;;;;4.60;96.90;;;;;;5085351;28;19908;-89
2021/01/04 08:46:22;;;;;;;;;;;4.60;96.90;;;;;;5063185;28;20378;-89
2021/01/04 08:48:48;;;;;;;;;;;4.60;97.00;;;;;;5067027;28;19904;-89
2021/01/04 08:51:26;;;;;;;;;;;4.60;96.90;;;;;;5094190;28;19932;-88
2021/01/04 08:53:56;;;;;;;;;;;4.60;96.80;;;;;;5094365;28;19994;-89
2021/01/04 08:56:34;;;;;;;;;;;4.60;96.80;;;;;;5074821;28;19904;-88
2021/01/04 08:59:15;;;;;;;;;;;4.60;96.90;;;;;;5073480;28;19912;-89
2021/01/04 09:01:46;;;;;;;;;;;4.60;96.80;;;;;;5073396;28;20015;-85
2021/01/04 09:04:25;;;;;;;;;;;4.60;96.80;;;;;;5056691;28;19957;-89
2021/01/04 09:07:00;;;;;;;;;;;4.60;96.80;;;;;;5057828;28;19958;-89
2021/01/04 09:09:31;;;;;;;;;;;4.60;97.10;;;;;;5085018;28;19912;-90
2021/01/04 09:12:01;;;;;;;;;;;4.60;96.90;;;;;;5090172;28;19904;-86
2021/01/04 09:14:34;;;;;;;;;;;4.60;97.00;;;;;;5073686;28;20421;-89
2021/01/04 09:17:10;;;;;;;;;;;4.60;97.00;;;;;;5076104;28;19946;-90
2021/01/04 09:19:39;;;;;;;;;;;4.60;96.90;;;;;;5084361;28;19958;-89
2021/01/04 09:22:06;;;;;;;;;;;4.70;96.90;;;;;;5055406;28;19913;-89
2021/01/04 09:24:34;;;;;;;;;;;4.60;96.90;;;;;;5064406;28;19904;-89
2021/01/04 09:27:03;;;;;;;;;;;4.60;97.00;;;;;;5074823;28;19934;-89
2021/01/04 09:29:31;;;;;;;;;;;4.60;97.00;;;;;;5063291;28;19910;-89
2021/01/04 09:32:16;;;;;;;;;;;4.70;97.00;;;;;;5093424;28;20404;-89
2021/01/04 09:34:42;;;;;;;;;;;4.60;97.10;;;;;;5063923;28;19911;-88
2021/01/04 09:37:07;;;;;;;;;;;4.70;97.20;;;;;;5058695;28;19908;-87
2021/01/04 09:39:34;;;;;;;;;;;4.70;97.20;;;;;;5069239;28;19928;-89
2021/01/04 09:42:00;;;;;;;;;;;4.70;97.30;;;;;;5091995;28;19929;-90
2021/01/04 09:44:26;;;;;;;;;;;4.70;97.30;;;;;;5061980;28;19912;-90
2021/01/04 09:46:59;;;;;;;;;;;4.80;97.30;;;;;;5062462;28;19932;-90
2021/01/04 09:49:27;;;;;;;;;;;4.70;97.30;;;;;;5069821;28;19912;-91
2021/01/04 09:52:02;;;;;;;;;;;4.80;97.30;;;;;;5055577;28;19908;-91
2021/01/04 09:54:32;;;;;;;;;;;4.80;97.20;;;;;;5072331;28;19911;-89
2021/01/04 09:57:01;;;;;;;;;;;4.80;97.20;;;;;;5066088;28;19904;-91
2021/01/04 09:59:27;;;;;;;;;;;4.80;97.30;;;;;;5070651;28;19935;-90
2021/01/04 10:01:55;;;;;;;;;;;4.80;97.20;;;;;;5057175;28;20375;-89
2021/01/04 10:04:32;;;;;;;;;;;4.80;97.20;;;;;;5059962;28;19967;-89
2021/01/04 10:06:58;;;;;;;;;;;4.80;97.10;;;;;;5081472;28;19908;-90
2021/01/04 10:09:26;;;;;;;;;;;4.80;97.20;;;;;;5067744;28;19904;-91
2021/01/04 10:11:51;;;;;;;;;;;4.80;97.20;;;;;;5084656;28;19915;-89
2021/01/04 10:14:18;;;;;;;;;;;4.80;97.20;;;;;;5083592;28;19923;-90
2021/01/04 10:16:45;;;;;;;;;;;4.90;97.30;;;;;;5078012;28;19908;-90
2021/01/04 10:19:15;;;;;;;;;;;4.80;97.30;;;;;;5086405;28;20063;-91
2021/01/04 10:21:45;;;;;;;;;;;4.90;97.40;;;;;;5072722;28;19912;-90
2021/01/04 10:24:18;;;;;;;;;;;4.90;97.40;;;;;;5054863;28;19934;-91
2021/01/04 10:26:45;;;;;;;;;;;4.90;97.40;;;;;;5067861;28;20385;-91
2021/01/04 10:29:18;;;;;;;;;;;4.90;97.40;;;;;;5088590;28;19908;-92
2021/01/04 10:31:43;;;;;;;;;;;4.90;97.30;;;;;;5055511;28;19904;-91
2021/01/04 10:34:11;;;;;;;;;;;4.90;97.30;;;;;;5075826;28;20057;-90
2021/01/04 10:36:38;;;;;;;;;;;5.00;97.30;;;;;;5063308;28;19943;-90
2021/01/04 10:39:19;;;;;;;;;;;5.00;97.30;;;;;;5072306;28;19920;-91
2021/01/04 10:41:44;;;;;;;;;;;5.00;97.40;;;;;;5064704;28;19912;-90
2021/01/04 10:44:13;;;;;;;;;;;5.00;97.40;;;;;;5074250;28;19904;-88
2021/01/04 10:47:07;;;;;;;;;;;5.00;97.40;;;;;;5092929;28;19982;-90
2021/01/04 10:49:34;;;;;;;;;;;5.00;97.50;;;;;;5058729;28;19935;-90
2021/01/04 10:52:00;;;;;;;;;;;5.00;97.50;;;;;;5082140;28;19978;-90
2021/01/04 10:54:40;;;;;;;;;;;5.00;97.50;;;;;;5057935;28;19904;-91
2021/01/04 10:57:11;;;;;;;;;;;5.10;97.50;;;;;;5072981;28;19908;-87
2021/01/04 10:59:38;;;;;;;;;;;5.10;97.40;;;;;;5056096;28;19916;-91
2021/01/04 11:02:04;;;;;;;;;;;5.10;97.40;;;;;;5072600;28;19904;-90
2021/01/04 11:04:30;;;;;;;;;;;5.10;97.40;;;;;;5075310;28;20007;-91
2021/01/04 11:07:19;;;;;;;;;;;5.10;97.30;;;;;;5094755;28;19904;-91
2021/01/04 11:09:45;;;;;;;;;;;5.10;97.30;;;;;;5088325;28;19916;-91
2021/01/04 11:12:16;;;;;;;;;;;5.10;97.30;;;;;;5073890;28;19958;-90
2021/01/04 11:14:55;;;;;;;;;;;5.10;97.30;;;;;;5075765;28;19915;-90
2021/01/04 11:17:21;;;;;;;;;;;5.10;97.30;;;;;;5079851;28;19908;-91
2021/01/04 11:19:47;;;;;;;;;;;5.10;97.20;;;;;;5078701;28;19916;-92
2021/01/04 11:22:15;;;;;;;;;;;5.10;97.10;;;;;;5061400;28;19964;-88
2021/01/04 11:24:41;;;;;;;;;;;5.10;97.20;;;;;;5075882;28;19908;-90
2021/01/04 11:27:07;;;;;;;;;;;5.10;97.20;;;;;;5065587;28;19955;-91
2021/01/04 11:29:33;;;;;;;;;;;5.10;97.20;;;;;;5089471;28;19908;-91
2021/01/04 11:31:59;;;;;;;;;;;5.10;97.50;;;;;;5104090;28;19916;-90
2021/01/04 11:34:24;;;;;;;;;;;5.00;97.20;;;;;;5115633;28;19931;-90
2021/01/04 11:36:50;;;;;;;;;;;5.10;97.20;;;;;;5078946;28;19903;-91
2021/01/04 11:39:16;;;;;;;;;;;5.00;97.20;;;;;;5102961;28;19926;-89
2021/01/04 11:41:43;;;;;;;;;;;5.10;97.20;;;;;;5099727;28;19931;-87
2021/01/04 11:44:08;;;;;;;;;;;5.00;97.20;;;;;;5082853;28;19987;-86
2021/01/04 11:46:34;;;;;;;;;;;5.00;97.40;;;;;;5094754;28;19897;-89
2021/01/04 11:48:59;;;;;;;;;;;5.10;97.10;;;;;;5089355;28;20296;-94
2021/01/04 11:51:27;;;;;;;;;;;5.10;97.20;;;;;;5086976;28;19912;-94
2021/01/04 11:53:53;;;;;;;;;;;5.10;97.20;;;;;;5087202;28;19930;-88
2021/01/04 11:56:19;;;;;;;;;;;5.10;97.20;;;;;;5057759;28;19908;-90
2021/01/04 11:58:46;;;;;;;;;;;5.10;97.20;;;;;;5085748;28;19909;-90
2021/01/04 12:01:12;;;;;;;;;;;5.10;97.20;;;;;;5093382;28;19908;-88
2021/01/04 12:03:37;;;;;;;;;;;5.10;97.20;;;;;;5065834;28;19994;-90
2021/01/04 12:06:05;;;;;;;;;;;5.10;97.10;;;;;;5077345;28;19983;-90
2021/01/04 12:08:30;;;;;;;;;;;5.10;97.10;;;;;;5071053;28;19947;-91
2021/01/04 12:10:56;;;;;;;;;;;5.10;97.10;;;;;;5049741;28;19993;-91
2021/01/04 12:13:22;;;;;;;;;;;5.10;97.40;;;;;;5057371;28;19909;-91
2021/01/04 12:15:47;;;;;;;;;;;5.10;97.10;;;;;;5047699;28;19908;-91
2021/01/04 12:18:13;;;;;;;;;;;5.10;97.10;;;;;;5069672;28;19912;-90
2021/01/04 12:20:40;;;;;;;;;;;5.10;97.00;;;;;;5072795;28;19915;-92
2021/01/04 12:23:06;;;;;;;;;;;5.10;97.00;;;;;;5074629;28;19956;-90
2021/01/04 12:25:31;;;;;;;;;;;5.10;96.90;;;;;;5056087;28;20019;-91
2021/01/04 12:27:57;;;;;;;;;;;5.20;96.90;;;;;;5071682;28;19997;-91
2021/01/04 12:30:22;;;;;;;;;;;5.10;96.90;;;;;;5094570;28;20423;-91
2021/01/04 12:32:48;;;;;;;;;;;5.10;96.90;;;;;;5062859;28;19942;-91
2021/01/04 12:35:13;;;;;;;;;;;5.10;96.80;;;;;;5089813;28;20002;-92
2021/01/04 12:37:39;;;;;;;;;;;5.10;96.90;;;;;;5078931;28;19912;-90
2021/01/04 12:40:09;;;;;;;;;;;5.10;96.80;;;;;;5085792;28;19965;-91
2021/01/04 12:42:34;;;;;;;;;;;5.00;96.70;;;;;;5082431;28;19909;-91
2021/01/04 12:45:00;;;;;;;;;;;5.00;96.70;;;;;;5070839;28;19912;-92
2021/01/04 12:47:25;;;;;;;;;;;5.00;96.70;;;;;;5093903;28;19915;-92
2021/01/04 12:49:51;;;;;;;;;;;5.00;96.70;;;;;;5091252;28;19916;-93
2021/01/04 12:52:17;;;;;;;;;;;5.00;96.60;;;;;;5085092;28;19904;-91
2021/01/04 12:54:44;;;;;;;;;;;5.00;96.70;;;;;;5079440;28;19911;-91
2021/01/04 12:57:10;;;;;;;;;;;5.00;96.70;;;;;;5064294;28;19908;-91
2021/01/04 12:59:40;;;;;;;;;;;5.00;96.60;;;;;;5091067;28;19966;-92
2021/01/04 13:02:06;;;;;;;;;;;5.00;96.70;;;;;;5064825;28;19915;-93
2021/01/04 13:04:32;;;;;;;;;;;5.00;96.70;;;;;;5087829;28;19912;-91
2021/01/04 13:06:58;;;;;;;;;;;5.10;96.70;;;;;;5067908;28;19912;-92
2021/01/04 13:09:23;;;;;;;;;;;5.00;96.70;;;;;;5093866;28;19914;-93
2021/01/04 13:11:49;;;;;;;;;;;5.00;96.70;;;;;;5069500;28;19951;-92
2021/01/04 13:14:16;;;;;;;;;;;5.00;96.80;;;;;;5076906;28;19911;-92
2021/01/04 13:16:41;;;;;;;;;;;5.00;96.70;;;;;;5080224;28;19915;-93
2021/01/04 13:19:08;;;;;;;;;;;5.00;96.60;;;;;;5093960;28;19916;-92
2021/01/04 13:21:33;;;;;;;;;;;5.00;96.60;;;;;;5094200;28;19912;-91
2021/01/04 13:23:59;;;;;;;;;;;5.00;96.60;;;;;;5057633;28;20268;-93
2021/01/04 13:26:25;;;;;;;;;;;5.00;96.70;;;;;;5083722;28;20284;-93
2021/01/04 13:28:50;;;;;;;;;;;5.00;96.60;;;;;;5068174;28;19978;-93
2021/01/04 13:31:24;;;;;;;;;;;5.00;96.50;;;;;;5056101;28;19955;-92
2021/01/04 13:33:49;;;;;;;;;;;5.00;96.50;;;;;;5055697;28;19904;-94
2021/01/04 13:36:15;;;;;;;;;;;5.00;96.50;;;;;;5061880;28;19966;-88
2021/01/04 13:38:41;;;;;;;;;;;5.00;96.50;;;;;;5093900;28;19920;-92
2021/01/04 13:41:06;;;;;;;;;;;5.00;96.50;;;;;;5075942;28;19911;-92
2021/01/04 13:43:32;;;;;;;;;;;5.00;96.60;;;;;;5063068;28;20344;-93
2021/01/04 13:45:58;;;;;;;;;;;5.00;96.50;;;;;;5073178;28;19912;-92
2021/01/04 13:48:23;;;;;;;;;;;5.00;96.40;;;;;;5064010;28;19965;-93
2021/01/04 13:50:49;;;;;;;;;;;4.90;96.20;;;;;;5075656;28;19947;-91
2021/01/04 13:53:14;;;;;;;;;;;4.90;96.20;;;;;;5087209;28;19916;-93
2021/01/04 13:55:40;;;;;;;;;;;4.90;96.30;;;;;;5086937;28;19965;-92
2021/01/04 13:58:05;;;;;;;;;;;4.90;96.40;;;;;;5059348;28;19955;-90
2021/01/04 14:00:31;;;;;;;;;;;4.90;96.40;;;;;;5051324;28;19947;-76
2021/01/04 14:02:56;;;;;;;;;;;4.80;96.40;;;;;;5092071;28;20271;-91
2021/01/04 14:05:22;;;;;;;;;;;4.90;96.40;;;;;;5082971;28;19909;-91
2021/01/04 14:07:48;;;;;;;;;;;4.90;96.20;;;;;;5061035;28;19912;-91
2021/01/04 14:10:13;;;;;;;;;;;4.90;96.20;;;;;;5070453;28;19919;-91
2021/01/04 14:12:39;;;;;;;;;;;4.90;96.50;;;;;;5053861;28;19912;-92
2021/01/04 14:15:05;;;;;;;;;;;4.90;96.10;;;;;;5085343;28;20292;-92
2021/01/04 14:17:30;;;;;;;;;;;4.90;96.20;;;;;;5075228;28;20291;-93
2021/01/04 14:19:56;;;;;;;;;;;4.90;96.20;;;;;;5093122;28;20003;-92
2021/01/04 14:22:22;;;;;;;;;;;4.90;96.20;;;;;;5070398;28;20011;-91
2021/01/04 14:24:47;;;;;;;;;;;4.90;96.10;;;;;;5046173;28;19912;-92
2021/01/04 14:27:13;;;;;;;;;;;4.80;96.10;;;;;;5071816;28;20378;-93
2021/01/04 14:29:39;;;;;;;;;;;4.80;96.20;;;;;;5084684;28;19958;-91
2021/01/04 14:32:05;;;;;;;;;;;4.90;96.30;;;;;;5050192;28;20284;-92
2021/01/04 14:34:31;;;;;;;;;;;4.90;96.30;;;;;;5086257;28;19914;-93
2021/01/04 14:36:56;;;;;;;;;;;4.90;96.20;;;;;;5050969;28;19919;-93
2021/01/04 14:39:22;;;;;;;;;;;4.90;96.20;;;;;;5070900;28;19999;-92
2021/01/04 14:42:01;;;;;;;;;;;4.90;96.20;;;;;;5083897;28;19908;-91
2021/01/04 14:44:27;;;;;;;;;;;4.90;96.20;;;;;;5076936;28;19950;-93
2021/01/04 14:46:56;;;;;;;;;;;4.90;96.10;;;;;;5073149;28;19975;-93
2021/01/04 14:49:22;;;;;;;;;;;4.90;96.10;;;;;;5051554;28;20519;-92
2021/01/04 14:51:47;;;;;;;;;;;4.90;96.10;;;;;;5055012;28;20357;-94